If you wish to contribute or participate in the discussions about articles you are invited to join SKYbrary as a registered user

 Actions

Futaleufú Airport

From SKYbrary Wiki

SCFT
Airport
ICAO: SCFT – IATA: FFU
Summary
Name Futaleufú Airport
Region South America and Caribbean
Territory Chile CL.gif
Location Futaleufu, Los Lagos
Serving Futaleufu
Elevation 349.91 m
1,148 ft
1,148 ft349.91 m
Type small airport
Coordinates 43° 11' 21.00" S, 71° 51' 4.00" W
Runways
Designator Length Width Surface ROPS
9/27 948 m3,110.236 ft
18 m59.055 ft
ASP /


METAR
Observation SCFT 171200Z 28008KT 170V320 9999 SCT040 09/01 Q1018
Station FUTALEUFU
Date/Time 17 September 2019 12:00:00
Wind direction 280°
Wind speed 08 kts
Lowest cloud amount scattered clouds
Temperature 9°C
Dew point 1°C
Humidity 57%
QNH 1018 hPa
Weather condition n/a

Airport located near Futaleufu, Los Lagos, Chile.

Climatology

Temperate oceanic climate (Köppen climate classification Cfb)

Maps

Terrain

Loading map...

Airport Layout

Loading map...


Accidents & Serious Incidents at or in vicinity of SCFT

None on SKYbrary